^^
Saratoga-Weather Station Historical Data
Daily Summary for July 28, 2020 Units:  Both    English   Metric
Daily Weekly Monthly Yearly Custom
  High: Low: Average:
Temperature: 39.9 °F /  4.4 °C 31.6 °F /  -0.2 °C 36.9 °F /  2.7 °C
Dew Point: 37.9 °F /  3.3 °C 30.4 °F /  -0.9 °C 35.1 °F /  1.7 °C
Humidity: 96% 87% 93%
Wind Speed: 10.1mph /  16.3km/h - 1.4mph /  2.3km/h
Wind Gust: 17mph /  27.4km/h - -
Wind- - South
Pressure: 28.9 in /  979.0 hPa 28.8 in /  976.6 hPa -
Precipitation: 0.18 in /  4.6 mm    
Historical Graphs
 
 
Tabular Data for July 28, 2020
Time Temperature Dew Point Pressure Wind Wind Speed Wind Gust Humidity Rainfall Rate (Hourly) solar
00:00 39.4 °F /  4.1 °C 36.5 °F /  2.5 °C 28.9in /  978.7hPa NE 6mph /  9.7km/h 10mph /  16.1km/h 89% 0in /  0.0mm 0 W/m2
00:05 39.4 °F /  4.1 °C 36.5 °F /  2.5 °C 28.9in /  978.7hPa NE 4mph /  6.4km/h 10mph /  16.1km/h 89% 0in /  0.0mm 0 W/m2
00:10 39.4 °F /  4.1 °C 36.5 °F /  2.5 °C 28.9in /  978.7hPa NW 6mph /  9.7km/h 8mph /  12.9km/h 89% 0in /  0.0mm 0 W/m2
00:15 39.6 °F /  4.2 °C 36.5 °F /  2.5 °C 28.9in /  978.7hPa West 6mph /  9.7km/h 6mph /  9.7km/h 89% 0in /  0.0mm 0 W/m2
00:20 39.6 °F /  4.2 °C 36.5 °F /  2.5 °C 28.9in /  978.3hPa NE 4.9mph /  7.9km/h 5mph /  8km/h 89% 0in /  0.0mm 0 W/m2
00:25 39.4 °F /  4.1 °C 36.5 °F /  2.5 °C 28.9in /  978.7hPa NNE 2mph /  3.2km/h 4mph /  6.4km/h 89% 0in /  0.0mm 0 W/m2
00:30 39.4 °F /  4.1 °C 36.5 °F /  2.5 °C 28.9in /  978.7hPa NNW 4mph /  6.4km/h 5mph /  8km/h 89% 0in /  0.0mm 0 W/m2
00:35 39.2 °F /  4 °C 36.5 °F /  2.5 °C 28.9in /  978.7hPa NW 2mph /  3.2km/h 9mph /  14.5km/h 90% 0.01in /  0.2mm 0 W/m2
00:40 39 °F /  3.9 °C 36.3 °F /  2.4 °C 28.9in /  978.7hPa North 8.1mph /  13km/h 11mph /  17.7km/h 90% 0.01in /  0.2mm 0 W/m2
00:45 39 °F /  3.9 °C 36.3 °F /  2.4 °C 28.9in /  978.7hPa NW 0.9mph /  1.4km/h 11mph /  17.7km/h 90% 0.01in /  0.2mm 0 W/m2
00:50 38.8 °F /  3.8 °C 36.5 °F /  2.5 °C 28.9in /  978.3hPa WNW 2mph /  3.2km/h 10mph /  16.1km/h 91% 0.01in /  0.2mm 0 W/m2
00:55 38.8 °F /  3.8 °C 36.5 °F /  2.5 °C 28.9in /  978.7hPa WNW 0.9mph /  1.4km/h 9mph /  14.5km/h 91% 0.01in /  0.2mm 0 W/m2
01:00 38.8 °F /  3.8 °C 36.5 °F /  2.5 °C 28.9in /  978.3hPa NNE 4mph /  6.4km/h 17mph /  27.4km/h 91% 0.01in /  0.2mm 0 W/m2
01:05 38.8 °F /  3.8 °C 36.5 °F /  2.5 °C 28.9in /  978.3hPa WNW 6.9mph /  11.1km/h 17mph /  27.4km/h 91% 0.01in /  0.2mm 0 W/m2
01:10 38.8 °F /  3.8 °C 36.5 °F /  2.5 °C 28.9in /  978.3hPa NNW 8.1mph /  13km/h 8mph /  12.9km/h 91% 0.01in /  0.2mm 0 W/m2
01:15 38.8 °F /  3.8 °C 36.5 °F /  2.5 °C 28.9in /  978.3hPa NNW 4mph /  6.4km/h 17mph /  27.4km/h 91% 0.01in /  0.2mm 0 W/m2
01:20 38.7 °F /  3.7 °C 36.3 °F /  2.4 °C 28.9in /  978.3hPa WNW 4mph /  6.4km/h 7mph /  11.3km/h 91% 0.01in /  0.2mm 0 W/m2
01:25 38.7 °F /  3.7 °C 36.3 °F /  2.4 °C 28.9in /  978.3hPa NNW 0.9mph /  1.4km/h 6mph /  9.7km/h 91% 0.01in /  0.2mm 0 W/m2
01:30 38.7 °F /  3.7 °C 36.3 °F /  2.4 °C 28.9in /  978.3hPa NE 0.9mph /  1.4km/h 5mph /  8km/h 91% 0in /  0.0mm 0 W/m2
01:35 38.7 °F /  3.7 °C 36.3 °F /  2.4 °C 28.9in /  978.3hPa NNW 4mph /  6.4km/h 15mph /  24.1km/h 91% 0in /  0.0mm 0 W/m2
01:40 38.7 °F /  3.7 °C 36.3 °F /  2.4 °C 28.9in /  978.3hPa NNW 0.9mph /  1.4km/h 9mph /  14.5km/h 91% 0in /  0.0mm 0 W/m2
01:45 38.7 °F /  3.7 °C 36.3 °F /  2.4 °C 28.9in /  978.3hPa WNW 2.9mph /  4.7km/h 15mph /  24.1km/h 91% 0in /  0.0mm 0 W/m2
01:50 38.7 °F /  3.7 °C 36.3 °F /  2.4 °C 28.9in /  978.7hPa NE 4mph /  6.4km/h 10mph /  16.1km/h 91% 0in /  0.0mm 0 W/m2
01:55 38.7 °F /  3.7 °C 36.3 °F /  2.4 °C 28.9in /  978.7hPa NW 2mph /  3.2km/h 6mph /  9.7km/h 91% 0in /  0.0mm 0 W/m2
02:00 38.7 °F /  3.7 °C 36.3 °F /  2.4 °C 28.9in /  978.3hPa West 6.9mph /  11.1km/h 15mph /  24.1km/h 91% 0in /  0.0mm 0 W/m2
02:05 38.7 °F /  3.7 °C 36.3 °F /  2.4 °C 28.9in /  978.7hPa NW 0.9mph /  1.4km/h 9mph /  14.5km/h 91% 0in /  0.0mm 0 W/m2
02:10 38.7 °F /  3.7 °C 36.3 °F /  2.4 °C 28.9in /  978.7hPa WNW 10.1mph /  16.3km/h 15mph /  24.1km/h 91% 0in /  0.0mm 0 W/m2
02:15 38.7 °F /  3.7 °C 36.3 °F /  2.4 °C 28.9in /  978.7hPa East 4mph /  6.4km/h 5mph /  8km/h 91% 0in /  0.0mm 0 W/m2
02:20 38.7 °F /  3.7 °C 36.3 °F /  2.4 °C 28.9in /  978.7hPa NNE 2mph /  3.2km/h 14mph /  22.5km/h 91% 0in /  0.0mm 0 W/m2
02:25 38.7 °F /  3.7 °C 36.3 °F /  2.4 °C 28.9in /  978.7hPa NE 0.9mph /  1.4km/h 5mph /  8km/h 91% 0in /  0.0mm 0 W/m2
02:30 38.7 °F /  3.7 °C 36.3 °F /  2.4 °C 28.9in /  978.7hPa Calm   5mph /  8km/h 91% 0in /  0.0mm 0 W/m2
02:35 38.7 °F /  3.7 °C 36.3 °F /  2.4 °C 28.9in /  978.7hPa WSW 0.9mph /  1.4km/h 2mph /  3.2km/h 91% 0in /  0.0mm 0 W/m2
02:40 38.7 °F /  3.7 °C 36.3 °F /  2.4 °C 28.9in /  979.0hPa ESE 6.9mph /  11.1km/h 7mph /  11.3km/h 91% 0in /  0.0mm 0 W/m2
02:45 38.7 °F /  3.7 °C 36.3 °F /  2.4 °C 28.9in /  979.0hPa West 0.9mph /  1.4km/h 5mph /  8km/h 91% 0in /  0.0mm 0 W/m2
02:50 38.7 °F /  3.7 °C 36.3 °F /  2.4 °C 28.9in /  979.0hPa West 2mph /  3.2km/h 6mph /  9.7km/h 91% 0in /  0.0mm 0 W/m2
02:55 38.7 °F /  3.7 °C 36.3 °F /  2.4 °C 28.9in /  979.0hPa NW 2.9mph /  4.7km/h 4mph /  6.4km/h 91% 0in /  0.0mm 0 W/m2
03:00 38.7 °F /  3.7 °C 36.3 °F /  2.4 °C 28.9in /  979.0hPa NNW 2mph /  3.2km/h 3mph /  4.8km/h 91% 0in /  0.0mm 0 W/m2
03:05 38.7 °F /  3.7 °C 36.3 °F /  2.4 °C 28.9in /  979.0hPa NW 4.9mph /  7.9km/h 5mph /  8km/h 91% 0in /  0.0mm 0 W/m2
03:10 38.7 °F /  3.7 °C 36.3 °F /  2.4 °C 28.9in /  979.0hPa WNW 0.9mph /  1.4km/h 9mph /  14.5km/h 91% 0in /  0.0mm 0 W/m2
03:15 38.8 °F /  3.8 °C 36.5 °F /  2.5 °C 28.9in /  979.0hPa NW 2mph /  3.2km/h 5mph /  8km/h 91% 0in /  0.0mm 0 W/m2
03:20 38.8 °F /  3.8 °C 36.5 °F /  2.5 °C 28.9in /  979.0hPa NW 2mph /  3.2km/h 9mph /  14.5km/h 91% 0in /  0.0mm 0 W/m2
03:25 38.8 °F /  3.8 °C 36.5 °F /  2.5 °C 28.9in /  978.7hPa North 4mph /  6.4km/h 8mph /  12.9km/h 91% 0in /  0.0mm 0 W/m2
03:30 38.8 °F /  3.8 °C 36.5 °F /  2.5 °C 28.9in /  978.7hPa NW 2.9mph /  4.7km/h 6mph /  9.7km/h 91% 0in /  0.0mm 0 W/m2
03:35 38.8 °F /  3.8 °C 36.5 °F /  2.5 °C 28.9in /  978.7hPa Calm   6mph /  9.7km/h 91% 0in /  0.0mm 0 W/m2
03:40 38.8 °F /  3.8 °C 36.5 °F /  2.5 °C 28.9in /  978.7hPa WNW 2.9mph /  4.7km/h 8mph /  12.9km/h 91% 0in /  0.0mm 0 W/m2
03:45 38.8 °F /  3.8 °C 36.7 °F /  2.6 °C 28.9in /  978.7hPa NNW 4mph /  6.4km/h 5mph /  8km/h 92% 0in /  0.0mm 0 W/m2
03:50 38.8 °F /  3.8 °C 36.5 °F /  2.5 °C 28.9in /  978.7hPa North 0.9mph /  1.4km/h 6mph /  9.7km/h 91% 0in /  0.0mm 0 W/m2
03:55 38.8 °F /  3.8 °C 36.5 °F /  2.5 °C 28.9in /  978.3hPa North 0.9mph /  1.4km/h 4mph /  6.4km/h 91% 0in /  0.0mm 0 W/m2
04:00 38.7 °F /  3.7 °C 36.3 °F /  2.4 °C 28.9in /  978.7hPa WSW 2.9mph /  4.7km/h 8mph /  12.9km/h 91% 0in /  0.0mm 0 W/m2
04:05 38.7 °F /  3.7 °C 36.3 °F /  2.4 °C 28.9in /  978.7hPa SW 2.9mph /  4.7km/h 6mph /  9.7km/h 91% 0in /  0.0mm 0 W/m2
04:10 38.7 °F /  3.7 °C 36.5 °F /  2.5 °C 28.9in /  978.7hPa NNE 2.9mph /  4.7km/h 8mph /  12.9km/h 92% 0in /  0.0mm 0 W/m2
04:15 38.7 °F /  3.7 °C 36.5 °F /  2.5 °C 28.9in /  978.7hPa WNW 6.9mph /  11.1km/h 7mph /  11.3km/h 92% 0in /  0.0mm 0 W/m2
04:20 38.7 °F /  3.7 °C 36.3 °F /  2.4 °C 28.9in /  978.7hPa WSW 0.9mph /  1.4km/h 3mph /  4.8km/h 91% 0in /  0.0mm 0 W/m2
04:25 38.7 °F /  3.7 °C 36.3 °F /  2.4 °C 28.9in /  978.7hPa WNW 2.9mph /  4.7km/h 3mph /  4.8km/h 91% 0in /  0.0mm 0 W/m2
04:30 38.7 °F /  3.7 °C 36.5 °F /  2.5 °C 28.9in /  978.7hPa NW 2mph /  3.2km/h 4mph /  6.4km/h 92% 0in /  0.0mm 0 W/m2
04:35 38.7 °F /  3.7 °C 36.3 °F /  2.4 °C 28.9in /  978.3hPa NE 2mph /  3.2km/h 3mph /  4.8km/h 91% 0in /  0.0mm 0 W/m2
04:40 38.5 °F /  3.6 °C 36.1 °F /  2.3 °C 28.9in /  978.3hPa WNW 2.9mph /  4.7km/h 8mph /  12.9km/h 91% 0in /  0.0mm 0 W/m2
04:45 38.3 °F /  3.5 °C 36 °F /  2.2 °C 28.9in /  978.7hPa NW 2.9mph /  4.7km/h 4mph /  6.4km/h 91% 0in /  0.0mm 0 W/m2
04:50 38.3 °F /  3.5 °C 36.1 °F /  2.3 °C 28.9in /  978.3hPa East 2mph /  3.2km/h 8mph /  12.9km/h 92% 0in /  0.0mm 0 W/m2
04:55 38.3 °F /  3.5 °C 36.1 °F /  2.3 °C 28.9in /  978.3hPa WNW 2mph /  3.2km/h 3mph /  4.8km/h 92% 0in /  0.0mm 0 W/m2
05:00 38.3 °F /  3.5 °C 36.1 °F /  2.3 °C 28.9in /  978.3hPa WNW 0.9mph /  1.4km/h 3mph /  4.8km/h 92% 0in /  0.0mm 0 W/m2
05:05 38.1 °F /  3.4 °C 35.8 °F /  2.1 °C 28.9in /  978.3hPa NNW 0.9mph /  1.4km/h 4mph /  6.4km/h 91% 0in /  0.0mm 0 W/m2
05:11 37.9 °F /  3.3 °C 35.8 °F /  2.1 °C 28.9in /  978.3hPa NNW 2mph /  3.2km/h 3mph /  4.8km/h 92% 0in /  0.0mm 0 W/m2
05:16 37.9 °F /  3.3 °C 35.8 °F /  2.1 °C 28.9in /  978.3hPa ENE 2mph /  3.2km/h 4mph /  6.4km/h 92% 0in /  0.0mm 0 W/m2
05:21 37.9 °F /  3.3 °C 35.8 °F /  2.1 °C 28.9in /  978.3hPa ENE 0.9mph /  1.4km/h 4mph /  6.4km/h 92% 0in /  0.0mm 0 W/m2
05:26 37.8 °F /  3.2 °C 35.6 °F /  2 °C 28.9in /  978.3hPa East 0.9mph /  1.4km/h 3mph /  4.8km/h 92% 0in /  0.0mm 0 W/m2
05:31 37.6 °F /  3.1 °C 35.4 °F /  1.9 °C 28.9in /  978.3hPa East 0.9mph /  1.4km/h 2mph /  3.2km/h 92% 0in /  0.0mm 0 W/m2
05:36 37 °F /  2.8 °C 34.7 °F /  1.5 °C 28.9in /  978.3hPa Calm   1mph /  1.6km/h 91% 0in /  0.0mm 0 W/m2
05:41 36.7 °F /  2.6 °C 34.3 °F /  1.3 °C 28.9in /  978.3hPa Calm     91% 0in /  0.0mm 0 W/m2
05:46 36.3 °F /  2.4 °C 34.2 °F /  1.2 °C 28.9in /  978.3hPa East 0.9mph /  1.4km/h 2mph /  3.2km/h 92% 0in /  0.0mm 0 W/m2
05:51 36.1 °F /  2.3 °C 34.3 °F /  1.3 °C 28.9in /  978.0hPa Calm     93% 0in /  0.0mm 0 W/m2
05:56 36.1 °F /  2.3 °C 34.3 °F /  1.3 °C 28.9in /  978.0hPa Calm   2mph /  3.2km/h 93% 0in /  0.0mm 0 W/m2
06:01 36.3 °F /  2.4 °C 34.7 °F /  1.5 °C 28.9in /  978.0hPa Calm     94% 0in /  0.0mm 0 W/m2
06:06 36.3 °F /  2.4 °C 34.7 °F /  1.5 °C 28.9in /  978.0hPa NNE 0.9mph /  1.4km/h 2mph /  3.2km/h 94% 0in /  0.0mm 0 W/m2
06:11 36.7 °F /  2.6 °C 35.1 °F /  1.7 °C 28.9in /  978.0hPa Calm   3mph /  4.8km/h 94% 0in /  0.0mm 0 W/m2
06:16 36.9 °F /  2.7 °C 35.2 °F /  1.8 °C 28.9in /  977.6hPa NE 2mph /  3.2km/h 5mph /  8km/h 94% 0in /  0.0mm 0 W/m2
06:21 36.9 °F /  2.7 °C 35.2 °F /  1.8 °C 28.9in /  977.6hPa Calm   2mph /  3.2km/h 94% 0in /  0.0mm 0 W/m2
06:26 36.9 °F /  2.7 °C 35.2 °F /  1.8 °C 28.9in /  977.6hPa Calm   5mph /  8km/h 94% 0in /  0.0mm 0 W/m2
06:31 36.7 °F /  2.6 °C 35.1 °F /  1.7 °C 28.9in /  977.6hPa Calm     94% 0in /  0.0mm 0 W/m2
06:36 36.7 °F /  2.6 °C 35.1 °F /  1.7 °C 28.9in /  977.6hPa Calm     94% 0in /  0.0mm 0 W/m2
06:41 36.3 °F /  2.4 °C 34.7 °F /  1.5 °C 28.9in /  977.6hPa Calm     94% 0in /  0.0mm 0 W/m2
06:46 36.1 °F /  2.3 °C 34.5 °F /  1.4 °C 28.9in /  977.6hPa Calm   3mph /  4.8km/h 94% 0in /  0.0mm 0 W/m2
06:51 36.1 °F /  2.3 °C 34.5 °F /  1.4 °C 28.9in /  978.0hPa Calm     94% 0in /  0.0mm 0 W/m2
06:56 36.1 °F /  2.3 °C 34.9 °F /  1.6 °C 28.9in /  977.6hPa Calm   6mph /  9.7km/h 95% 0in /  0.0mm 0 W/m2
07:01 36.1 °F /  2.3 °C 34.9 °F /  1.6 °C 28.9in /  977.6hPa NE 2.9mph /  4.7km/h 4mph /  6.4km/h 95% 0in /  0.0mm 0 W/m2
07:06 36.3 °F /  2.4 °C 35.1 °F /  1.7 °C 28.9in /  977.6hPa North 0.9mph /  1.4km/h 4mph /  6.4km/h 95% 0in /  0.0mm 0 W/m2
07:11 36.1 °F /  2.3 °C 34.9 °F /  1.6 °C 28.9in /  977.6hPa NE 0.9mph /  1.4km/h 5mph /  8km/h 95% 0in /  0.0mm 0 W/m2
07:16 36.1 °F /  2.3 °C 34.9 °F /  1.6 °C 28.9in /  977.6hPa NE 2mph /  3.2km/h 2mph /  3.2km/h 95% 0in /  0.0mm 0 W/m2
07:21 36.1 °F /  2.3 °C 34.9 °F /  1.6 °C 28.9in /  977.6hPa NNE 0.9mph /  1.4km/h 2mph /  3.2km/h 95% 0in /  0.0mm 0 W/m2
07:26 36 °F /  2.2 °C 34.3 °F /  1.3 °C 28.9in /  977.6hPa Calm   1mph /  1.6km/h 94% 0in /  0.0mm 0 W/m2
07:31 35.8 °F /  2.1 °C 34.2 °F /  1.2 °C 28.9in /  977.6hPa Calm     94% 0in /  0.0mm 0 W/m2
07:36 35.2 °F /  1.8 °C 33.6 °F /  0.9 °C 28.9in /  977.6hPa Calm     94% 0in /  0.0mm 0 W/m2
07:41 35.2 °F /  1.8 °C 33.6 °F /  0.9 °C 28.9in /  977.6hPa Calm   1mph /  1.6km/h 94% 0in /  0.0mm 0 W/m2
07:46 35.1 °F /  1.7 °C 33.4 °F /  0.8 °C 28.9in /  977.6hPa Calm     94% 0in /  0.0mm 0 W/m2
07:51 35.1 °F /  1.7 °C 33.8 °F /  1 °C 28.9in /  977.6hPa Calm     95% 0in /  0.0mm 0 W/m2
07:56 35.1 °F /  1.7 °C 33.8 °F /  1 °C 28.9in /  977.6hPa Calm     95% 0in /  0.0mm 0 W/m2
08:01 35.1 °F /  1.7 °C 33.8 °F /  1 °C 28.9in /  977.6hPa West 0.9mph /  1.4km/h 3mph /  4.8km/h 95% 0in /  0.0mm 0 W/m2
08:06 35.1 °F /  1.7 °C 33.8 °F /  1 °C 28.9in /  977.6hPa West 0.9mph /  1.4km/h 2mph /  3.2km/h 95% 0in /  0.0mm 0 W/m2
08:11 35.2 °F /  1.8 °C 34 °F /  1.1 °C 28.9in /  977.6hPa NW 0.9mph /  1.4km/h 3mph /  4.8km/h 95% 0in /  0.0mm 0 W/m2
08:16 35.2 °F /  1.8 °C 34 °F /  1.1 °C 28.9in /  977.6hPa Calm   1mph /  1.6km/h 95% 0in /  0.0mm 0 W/m2
08:21 35.4 °F /  1.9 °C 34.3 °F /  1.3 °C 28.9in /  977.6hPa South 2mph /  3.2km/h 2mph /  3.2km/h 96% 0in /  0.0mm 0 W/m2
08:26 35.6 °F /  2 °C 34.5 °F /  1.4 °C 28.9in /  977.6hPa Calm     96% 0in /  0.0mm 0 W/m2
08:31 35.6 °F /  2 °C 34.3 °F /  1.3 °C 28.9in /  977.3hPa Calm     95% 0in /  0.0mm 0 W/m2
08:36 35.8 °F /  2.1 °C 34.7 °F /  1.5 °C 28.9in /  977.3hPa South 0.9mph /  1.4km/h 2mph /  3.2km/h 96% 0in /  0.0mm 0 W/m2
08:41 35.8 °F /  2.1 °C 34.7 °F /  1.5 °C 28.9in /  977.3hPa Calm   1mph /  1.6km/h 96% 0in /  0.0mm 0 W/m2
08:46 36 °F /  2.2 °C 34.9 °F /  1.6 °C 28.9in /  977.3hPa Calm   1mph /  1.6km/h 96% 0in /  0.0mm 0 W/m2
08:51 36 °F /  2.2 °C 34.9 °F /  1.6 °C 28.9in /  977.3hPa Calm   1mph /  1.6km/h 96% 0in /  0.0mm 5 W/m2
08:56 35.8 °F /  2.1 °C 34.7 °F /  1.5 °C 28.9in /  977.3hPa Calm     96% 0in /  0.0mm 9 W/m2
09:01 35.8 °F /  2.1 °C 34.7 °F /  1.5 °C 28.9in /  977.0hPa Calm     96% 0in /  0.0mm 7 W/m2
09:06 35.8 °F /  2.1 °C 34.7 °F /  1.5 °C 28.9in /  977.3hPa South 0.9mph /  1.4km/h 1mph /  1.6km/h 96% 0in /  0.0mm 9 W/m2
09:11 35.8 °F /  2.1 °C 34.7 °F /  1.5 °C 28.9in /  977.0hPa Calm     96% 0in /  0.0mm 12 W/m2
09:16 35.8 °F /  2.1 °C 34.7 °F /  1.5 °C 28.9in /  977.3hPa Calm     96% 0in /  0.0mm 16 W/m2
09:21 35.8 °F /  2.1 °C 34.7 °F /  1.5 °C 28.9in /  977.3hPa Calm     96% 0in /  0.0mm 18 W/m2
09:26 35.8 °F /  2.1 °C 34.7 °F /  1.5 °C 28.9in /  977.3hPa Calm     96% 0in /  0.0mm 28 W/m2
09:31 36 °F /  2.2 °C 34.9 °F /  1.6 °C 28.9in /  977.3hPa NE 2.9mph /  4.7km/h 3mph /  4.8km/h 96% 0in /  0.0mm 35 W/m2
09:36 36.3 °F /  2.4 °C 35.2 °F /  1.8 °C 28.9in /  977.3hPa ENE 0.9mph /  1.4km/h 3mph /  4.8km/h 96% 0in /  0.0mm 49 W/m2
09:41 36.7 °F /  2.6 °C 35.6 °F /  2 °C 28.9in /  977.3hPa ENE 2.9mph /  4.7km/h 4mph /  6.4km/h 96% 0in /  0.0mm 32 W/m2
09:46 36.9 °F /  2.7 °C 35.8 °F /  2.1 °C 28.9in /  977.3hPa Calm   2mph /  3.2km/h 96% 0.01in /  0.2mm 44 W/m2
09:51 36.9 °F /  2.7 °C 35.8 °F /  2.1 °C 28.9in /  977.3hPa Calm   4mph /  6.4km/h 96% 0.01in /  0.2mm 49 W/m2
09:56 37 °F /  2.8 °C 36 °F /  2.2 °C 28.9in /  977.3hPa NNW 2mph /  3.2km/h 2mph /  3.2km/h 96% 0.01in /  0.2mm 47 W/m2
10:01 37.2 °F /  2.9 °C 36.1 °F /  2.3 °C 28.9in /  977.3hPa NNE 2mph /  3.2km/h 2mph /  3.2km/h 96% 0.01in /  0.2mm 40 W/m2
10:06 37.6 °F /  3.1 °C 36.5 °F /  2.5 °C 28.9in /  977.3hPa North 0.9mph /  1.4km/h 2mph /  3.2km/h 96% 0.02in /  0.5mm 39 W/m2
10:11 37.6 °F /  3.1 °C 36.5 °F /  2.5 °C 28.9in /  977.3hPa Calm   2mph /  3.2km/h 96% 0.02in /  0.5mm 28 W/m2
10:16 37.8 °F /  3.2 °C 36.7 °F /  2.6 °C 28.9in /  977.3hPa NE 0.9mph /  1.4km/h 3mph /  4.8km/h 96% 0.02in /  0.5mm 19 W/m2
10:21 37.9 °F /  3.3 °C 36.9 °F /  2.7 °C 28.9in /  977.3hPa Calm   3mph /  4.8km/h 96% 0.02in /  0.5mm 14 W/m2
10:26 38.1 °F /  3.4 °C 37 °F /  2.8 °C 28.9in /  977.3hPa NE 0.9mph /  1.4km/h 4mph /  6.4km/h 96% 0.02in /  0.5mm 12 W/m2
10:31 38.1 °F /  3.4 °C 37 °F /  2.8 °C 28.9in /  977.3hPa NE 2mph /  3.2km/h 2mph /  3.2km/h 96% 0.03in /  0.8mm 12 W/m2
10:36 38.1 °F /  3.4 °C 37 °F /  2.8 °C 28.9in /  977.3hPa Calm   2mph /  3.2km/h 96% 0.04in /  1.0mm 16 W/m2
10:41 37.9 °F /  3.3 °C 36.9 °F /  2.7 °C 28.9in /  977.6hPa North 0.9mph /  1.4km/h 2mph /  3.2km/h 96% 0.05in /  1.3mm 23 W/m2
10:46 37.8 °F /  3.2 °C 36.7 °F /  2.6 °C 28.9in /  977.6hPa Calm   4mph /  6.4km/h 96% 0.05in /  1.3mm 39 W/m2
10:52 37.8 °F /  3.2 °C 36.7 °F /  2.6 °C 28.9in /  977.6hPa North 0.9mph /  1.4km/h 3mph /  4.8km/h 96% 0.05in /  1.3mm 46 W/m2
10:57 37.8 °F /  3.2 °C 36.7 °F /  2.6 °C 28.9in /  977.6hPa NE 0.9mph /  1.4km/h 3mph /  4.8km/h 96% 0.05in /  1.3mm 63 W/m2
11:02 37.8 °F /  3.2 °C 36.5 °F /  2.5 °C 28.9in /  977.6hPa North 0.9mph /  1.4km/h 2mph /  3.2km/h 95% 0.05in /  1.3mm 65 W/m2
11:07 37.8 °F /  3.2 °C 36.5 °F /  2.5 °C 28.9in /  977.6hPa Calm     95% 0.04in /  1.0mm 67 W/m2
11:12 37.9 °F /  3.3 °C 36.7 °F /  2.6 °C 28.9in /  977.3hPa NE 0.9mph /  1.4km/h 1mph /  1.6km/h 95% 0.05in /  1.3mm 49 W/m2
11:17 37.9 °F /  3.3 °C 36.7 °F /  2.6 °C 28.9in /  977.3hPa Calm   4mph /  6.4km/h 95% 0.05in /  1.3mm 54 W/m2
11:22 38.1 °F /  3.4 °C 36.9 °F /  2.7 °C 28.9in /  977.6hPa East 0.9mph /  1.4km/h 4mph /  6.4km/h 95% 0.05in /  1.3mm 42 W/m2
11:27 38.1 °F /  3.4 °C 36.9 °F /  2.7 °C 28.9in /  977.3hPa East 0.9mph /  1.4km/h 2mph /  3.2km/h 95% 0.04in /  1.0mm 51 W/m2
11:32 38.3 °F /  3.5 °C 37 °F /  2.8 °C 28.9in /  977.3hPa ENE 2mph /  3.2km/h 4mph /  6.4km/h 95% 0.03in /  0.8mm 49 W/m2
11:37 38.5 °F /  3.6 °C 37.2 °F /  2.9 °C 28.9in /  977.3hPa ENE 0.9mph /  1.4km/h 3mph /  4.8km/h 95% 0.02in /  0.5mm 40 W/m2
11:42 38.5 °F /  3.6 °C 37.2 °F /  2.9 °C 28.9in /  977.3hPa East 2mph /  3.2km/h 3mph /  4.8km/h 95% 0.02in /  0.5mm 39 W/m2
11:47 38.5 °F /  3.6 °C 37.2 °F /  2.9 °C 28.9in /  977.3hPa ENE 2mph /  3.2km/h 3mph /  4.8km/h 95% 0.01in /  0.2mm 40 W/m2
11:52 38.7 °F /  3.7 °C 37.4 °F /  3 °C 28.9in /  977.3hPa East 0.9mph /  1.4km/h 3mph /  4.8km/h 95% 0.01in /  0.2mm 39 W/m2
11:57 38.7 °F /  3.7 °C 37.4 °F /  3 °C 28.9in /  977.3hPa East 0.9mph /  1.4km/h 1mph /  1.6km/h 95% 0.02in /  0.5mm 42 W/m2
12:02 38.7 °F /  3.7 °C 37.4 °F /  3 °C 28.9in /  977.3hPa East 2mph /  3.2km/h 3mph /  4.8km/h 95% 0.02in /  0.5mm 44 W/m2
12:07 38.8 °F /  3.8 °C 37.6 °F /  3.1 °C 28.9in /  977.3hPa NNW 2mph /  3.2km/h 3mph /  4.8km/h 95% 0.02in /  0.5mm 51 W/m2
12:12 38.8 °F /  3.8 °C 37.6 °F /  3.1 °C 28.9in /  977.3hPa NW 2mph /  3.2km/h 3mph /  4.8km/h 95% 0.02in /  0.5mm 46 W/m2
12:17 39 °F /  3.9 °C 37.8 °F /  3.2 °C 28.9in /  977.3hPa NNE 0.9mph /  1.4km/h 3mph /  4.8km/h 95% 0.02in /  0.5mm 39 W/m2
12:22 39 °F /  3.9 °C 37.8 °F /  3.2 °C 28.9in /  977.3hPa North 2mph /  3.2km/h 3mph /  4.8km/h 95% 0.02in /  0.5mm 42 W/m2
12:27 39.2 °F /  4 °C 37.9 °F /  3.3 °C 28.9in /  977.3hPa SW 2.9mph /  4.7km/h 4mph /  6.4km/h 95% 0.02in /  0.5mm 39 W/m2
12:32 39.2 °F /  4 °C 37.6 °F /  3.1 °C 28.9in /  977.3hPa ENE 4.9mph /  7.9km/h 11mph /  17.7km/h 94% 0.03in /  0.8mm 65 W/m2
12:37 39.4 °F /  4.1 °C 37.8 °F /  3.2 °C 28.9in /  977.3hPa NW 2.9mph /  4.7km/h 7mph /  11.3km/h 94% 0.03in /  0.8mm 86 W/m2
12:42 39.4 °F /  4.1 °C 37.8 °F /  3.2 °C 28.9in /  977.3hPa NNW 2.9mph /  4.7km/h 11mph /  17.7km/h 94% 0.03in /  0.8mm 91 W/m2
12:47 39.4 °F /  4.1 °C 37.6 °F /  3.1 °C 28.9in /  977.3hPa West 4mph /  6.4km/h 10mph /  16.1km/h 93% 0.03in /  0.8mm 95 W/m2
12:52 39.6 °F /  4.2 °C 37.8 °F /  3.2 °C 28.9in /  977.3hPa West 2.9mph /  4.7km/h 4mph /  6.4km/h 93% 0.03in /  0.8mm 91 W/m2
12:57 39.6 °F /  4.2 °C 37.8 °F /  3.2 °C 28.9in /  977.3hPa North 0.9mph /  1.4km/h 10mph /  16.1km/h 93% 0.03in /  0.8mm 107 W/m2
13:02 39.6 °F /  4.2 °C 37.8 °F /  3.2 °C 28.9in /  977.3hPa WNW 4mph /  6.4km/h 5mph /  8km/h 93% 0.03in /  0.8mm 86 W/m2
13:07 39.6 °F /  4.2 °C 37.4 °F /  3 °C 28.9in /  977.6hPa NNW 2mph /  3.2km/h 5mph /  8km/h 92% 0.03in /  0.8mm 74 W/m2
13:12 39.6 °F /  4.2 °C 37.4 °F /  3 °C 28.9in /  977.6hPa SSW 2.9mph /  4.7km/h 11mph /  17.7km/h 92% 0.02in /  0.5mm 90 W/m2
13:17 39.7 °F /  4.3 °C 37.6 °F /  3.1 °C 28.9in /  977.6hPa NNE 0.9mph /  1.4km/h 4mph /  6.4km/h 92% 0.02in /  0.5mm 141 W/m2
13:22 39.7 °F /  4.3 °C 37.6 °F /  3.1 °C 28.9in /  977.6hPa West 0.9mph /  1.4km/h 9mph /  14.5km/h 92% 0.02in /  0.5mm 158 W/m2
13:27 39.7 °F /  4.3 °C 37.6 °F /  3.1 °C 28.9in /  977.6hPa WNW 0.9mph /  1.4km/h 11mph /  17.7km/h 92% 0.02in /  0.5mm 116 W/m2
13:32 39.7 °F /  4.3 °C 37.6 °F /  3.1 °C 28.9in /  977.6hPa WSW 0.9mph /  1.4km/h 10mph /  16.1km/h 92% 0.01in /  0.2mm 70 W/m2
13:37 39.7 °F /  4.3 °C 37.4 °F /  3 °C 28.9in /  977.6hPa NW 2mph /  3.2km/h 11mph /  17.7km/h 91% 0.01in /  0.2mm 53 W/m2
13:42 39.7 °F /  4.3 °C 37.4 °F /  3 °C 28.9in /  977.6hPa NW 2mph /  3.2km/h 3mph /  4.8km/h 91% 0.01in /  0.2mm 165 W/m2
13:47 39.7 °F /  4.3 °C 37.4 °F /  3 °C 28.9in /  977.6hPa NNW 0.9mph /  1.4km/h 3mph /  4.8km/h 91% 0.01in /  0.2mm 123 W/m2
13:52 39.7 °F /  4.3 °C 37.4 °F /  3 °C 28.9in /  977.6hPa NW 2.9mph /  4.7km/h 7mph /  11.3km/h 91% 0.01in /  0.2mm 114 W/m2
13:57 39.7 °F /  4.3 °C 37.4 °F /  3 °C 28.9in /  977.6hPa Calm   3mph /  4.8km/h 91% 0in /  0.0mm 90 W/m2
14:02 39.7 °F /  4.3 °C 37.4 °F /  3 °C 28.9in /  977.6hPa NW 2mph /  3.2km/h 7mph /  11.3km/h 91% 0in /  0.0mm 121 W/m2
14:07 39.9 °F /  4.4 °C 37.6 °F /  3.1 °C 28.9in /  977.6hPa ENE 0.9mph /  1.4km/h 2mph /  3.2km/h 91% 0in /  0.0mm 123 W/m2
14:12 39.9 °F /  4.4 °C 37.6 °F /  3.1 °C 28.9in /  978.0hPa Calm   4mph /  6.4km/h 91% 0in /  0.0mm 74 W/m2
14:17 39.9 °F /  4.4 °C 37.6 °F /  3.1 °C 28.9in /  978.0hPa North 0.9mph /  1.4km/h 15mph /  24.1km/h 91% 0in /  0.0mm 76 W/m2
14:22 39.9 °F /  4.4 °C 37.2 °F /  2.9 °C 28.9in /  978.0hPa NNW 2mph /  3.2km/h 3mph /  4.8km/h 90% 0in /  0.0mm 56 W/m2
14:27 39.9 °F /  4.4 °C 37.2 °F /  2.9 °C 28.9in /  978.0hPa West 2mph /  3.2km/h 14mph /  22.5km/h 90% 0in /  0.0mm 77 W/m2
14:32 39.9 °F /  4.4 °C 36.9 °F /  2.7 °C 28.9in /  978.0hPa WNW 4.9mph /  7.9km/h 5mph /  8km/h 89% 0in /  0.0mm 90 W/m2
14:37 39.9 °F /  4.4 °C 36.9 °F /  2.7 °C 28.9in /  978.0hPa WSW 0.9mph /  1.4km/h 4mph /  6.4km/h 89% 0in /  0.0mm 63 W/m2
14:42 39.9 °F /  4.4 °C 36.9 °F /  2.7 °C 28.9in /  978.0hPa SW 4mph /  6.4km/h 10mph /  16.1km/h 89% 0in /  0.0mm 47 W/m2
14:47 39.7 °F /  4.3 °C 36.7 °F /  2.6 °C 28.9in /  978.0hPa NNW 2mph /  3.2km/h 3mph /  4.8km/h 89% 0in /  0.0mm 42 W/m2
14:53 39.7 °F /  4.3 °C 36.7 °F /  2.6 °C 28.9in /  978.3hPa NW 0.9mph /  1.4km/h 10mph /  16.1km/h 89% 0in /  0.0mm 35 W/m2
14:58 39.9 °F /  4.4 °C 36.9 °F /  2.7 °C 28.9in /  978.0hPa NW 0.9mph /  1.4km/h 2mph /  3.2km/h 89% 0in /  0.0mm 32 W/m2
15:03 39.9 °F /  4.4 °C 36.9 °F /  2.7 °C 28.9in /  978.0hPa Calm   1mph /  1.6km/h 89% 0in /  0.0mm 88 W/m2
15:08 39.9 °F /  4.4 °C 36.9 °F /  2.7 °C 28.9in /  978.0hPa NNW 4mph /  6.4km/h 4mph /  6.4km/h 89% 0in /  0.0mm 32 W/m2
15:13 39.9 °F /  4.4 °C 36.7 °F /  2.6 °C 28.9in /  978.0hPa NNE 0.9mph /  1.4km/h 8mph /  12.9km/h 88% 0in /  0.0mm 33 W/m2
15:18 39.9 °F /  4.4 °C 36.7 °F /  2.6 °C 28.9in /  978.0hPa Calm   1mph /  1.6km/h 88% 0in /  0.0mm 30 W/m2
15:23 39.9 °F /  4.4 °C 36.7 °F /  2.6 °C 28.9in /  978.0hPa NNW 0.9mph /  1.4km/h 3mph /  4.8km/h 88% 0in /  0.0mm 25 W/m2
15:28 39.9 °F /  4.4 °C 36.7 °F /  2.6 °C 28.9in /  978.3hPa West 6mph /  9.7km/h 9mph /  14.5km/h 88% 0in /  0.0mm 16 W/m2
15:33 39.7 °F /  4.3 °C 36.5 °F /  2.5 °C 28.9in /  978.0hPa NW 2.9mph /  4.7km/h 6mph /  9.7km/h 88% 0in /  0.0mm 14 W/m2
15:38 39.7 °F /  4.3 °C 36.5 °F /  2.5 °C 28.9in /  978.3hPa NW 4.9mph /  7.9km/h 10mph /  16.1km/h 88% 0in /  0.0mm 32 W/m2
15:43 39.7 °F /  4.3 °C 36.1 °F /  2.3 °C 28.9in /  978.0hPa NW 2.9mph /  4.7km/h 9mph /  14.5km/h 87% 0in /  0.0mm 19 W/m2
15:48 39.6 °F /  4.2 °C 36 °F /  2.2 °C 28.9in /  978.0hPa NNE 0.9mph /  1.4km/h 4mph /  6.4km/h 87% 0in /  0.0mm 16 W/m2
15:53 39.4 °F /  4.1 °C 36.1 °F /  2.3 °C 28.9in /  978.0hPa NNE 0.9mph /  1.4km/h 3mph /  4.8km/h 88% 0in /  0.0mm 12 W/m2
15:58 39.2 °F /  4 °C 36 °F /  2.2 °C 28.9in /  978.0hPa Calm   3mph /  4.8km/h 88% 0in /  0.0mm 16 W/m2
16:03 39 °F /  3.9 °C 35.8 °F /  2.1 °C 28.9in /  978.0hPa NE 2mph /  3.2km/h 6mph /  9.7km/h 88% 0in /  0.0mm 18 W/m2
16:08 39 °F /  3.9 °C 35.8 °F /  2.1 °C 28.9in /  978.0hPa WNW 6.9mph /  11.1km/h 8mph /  12.9km/h 88% 0in /  0.0mm 11 W/m2
16:13 38.8 °F /  3.8 °C 35.6 °F /  2 °C 28.9in /  978.3hPa NNW 0.9mph /  1.4km/h 7mph /  11.3km/h 88% 0in /  0.0mm 11 W/m2
16:18 38.8 °F /  3.8 °C 35.6 °F /  2 °C 28.9in /  978.0hPa NW 2mph /  3.2km/h 4mph /  6.4km/h 88% 0in /  0.0mm 9 W/m2
16:23 38.7 °F /  3.7 °C 35.4 °F /  1.9 °C 28.9in /  978.3hPa SW 0.9mph /  1.4km/h 7mph /  11.3km/h 88% 0in /  0.0mm 7 W/m2
16:28 38.5 °F /  3.6 °C 35.2 °F /  1.8 °C 28.9in /  978.3hPa East 0.9mph /  1.4km/h 2mph /  3.2km/h 88% 0in /  0.0mm 5 W/m2
16:33 38.3 °F /  3.5 °C 35.1 °F /  1.7 °C 28.9in /  978.3hPa North 0.9mph /  1.4km/h 2mph /  3.2km/h 88% 0in /  0.0mm 5 W/m2
16:38 38.1 °F /  3.4 °C 34.9 °F /  1.6 °C 28.9in /  978.3hPa Calm   2mph /  3.2km/h 88% 0in /  0.0mm 0 W/m2
16:43 38.1 °F /  3.4 °C 35.2 °F /  1.8 °C 28.9in /  978.3hPa NNE 2mph /  3.2km/h 5mph /  8km/h 89% 0in /  0.0mm 0 W/m2
16:48 37.9 °F /  3.3 °C 35.1 °F /  1.7 °C 28.9in /  978.3hPa ENE 2mph /  3.2km/h 3mph /  4.8km/h 89% 0in /  0.0mm 0 W/m2
16:53 37.9 °F /  3.3 °C 35.1 °F /  1.7 °C 28.9in /  978.0hPa North 2mph /  3.2km/h 3mph /  4.8km/h 89% 0in /  0.0mm 0 W/m2
16:58 37.9 °F /  3.3 °C 35.1 °F /  1.7 °C 28.9in /  978.0hPa ENE 0.9mph /  1.4km/h 2mph /  3.2km/h 89% 0in /  0.0mm 0 W/m2
17:03 37.9 °F /  3.3 °C 35.1 °F /  1.7 °C 28.9in /  978.0hPa Calm   2mph /  3.2km/h 89% 0in /  0.0mm 0 W/m2
17:08 37.9 °F /  3.3 °C 35.1 °F /  1.7 °C 28.9in /  978.0hPa Calm   2mph /  3.2km/h 89% 0in /  0.0mm 0 W/m2
17:13 37.8 °F /  3.2 °C 34.9 °F /  1.6 °C 28.9in /  978.0hPa North 0.9mph /  1.4km/h 1mph /  1.6km/h 89% 0in /  0.0mm 0 W/m2
17:18 37.6 °F /  3.1 °C 34.7 °F /  1.5 °C 28.9in /  978.0hPa North 0.9mph /  1.4km/h 2mph /  3.2km/h 89% 0in /  0.0mm 0 W/m2
17:23 37.2 °F /  2.9 °C 34.5 °F /  1.4 °C 28.9in /  978.0hPa Calm   1mph /  1.6km/h 90% 0in /  0.0mm 0 W/m2
17:28 36.9 °F /  2.7 °C 34.2 °F /  1.2 °C 28.9in /  978.0hPa Calm     90% 0in /  0.0mm 0 W/m2
17:33 36.3 °F /  2.4 °C 33.6 °F /  0.9 °C 28.9in /  978.0hPa Calm     90% 0in /  0.0mm 0 W/m2
17:38 36 °F /  2.2 °C 33.3 °F /  0.7 °C 28.9in /  977.6hPa Calm     90% 0in /  0.0mm 0 W/m2
17:43 35.6 °F /  2 °C 33.3 °F /  0.7 °C 28.9in /  978.0hPa Calm     91% 0in /  0.0mm 0 W/m2
17:48 35.2 °F /  1.8 °C 32.9 °F /  0.5 °C 28.9in /  977.6hPa Calm     91% 0in /  0.0mm 0 W/m2
17:53 34.9 °F /  1.6 °C 32.7 °F /  0.4 °C 28.9in /  977.6hPa Calm     92% 0in /  0.0mm 0 W/m2
17:58 34.5 °F /  1.4 °C 32.4 °F /  0.2 °C 28.9in /  977.6hPa Calm     92% 0in /  0.0mm 0 W/m2
18:03 34.3 °F /  1.3 °C 32.2 °F /  0.1 °C 28.9in /  977.6hPa Calm     92% 0in /  0.0mm 0 W/m2
18:08 34.2 °F /  1.2 °C 32.4 °F /  0.2 °C 28.9in /  977.6hPa Calm   2mph /  3.2km/h 93% 0in /  0.0mm 0 W/m2
18:13 34 °F /  1.1 °C 32.2 °F /  0.1 °C 28.9in /  977.6hPa North 0.9mph /  1.4km/h 2mph /  3.2km/h 93% 0in /  0.0mm 0 W/m2
18:18 33.8 °F /  1 °C 32 °F /  0 °C 28.9in /  977.6hPa Calm     93% 0in /  0.0mm 0 W/m2
18:23 33.6 °F /  0.9 °C 31.8 °F /  -0.1 °C 28.9in /  977.6hPa Calm   1mph /  1.6km/h 93% 0in /  0.0mm 0 W/m2
18:28 33.6 °F /  0.9 °C 32 °F /  0 °C 28.9in /  977.6hPa Calm   1mph /  1.6km/h 94% 0in /  0.0mm 0 W/m2
18:33 33.4 °F /  0.8 °C 31.8 °F /  -0.1 °C 28.9in /  977.6hPa Calm   1mph /  1.6km/h 94% 0in /  0.0mm 0 W/m2
18:38 33.3 °F /  0.7 °C 31.6 °F /  -0.2 °C 28.9in /  977.6hPa Calm     94% 0in /  0.0mm 0 W/m2
18:43 33.1 °F /  0.6 °C 31.5 °F /  -0.3 °C 28.9in /  977.6hPa Calm     94% 0in /  0.0mm 0 W/m2
18:48 32.9 °F /  0.5 °C 31.3 °F /  -0.4 °C 28.9in /  977.6hPa Calm     94% 0in /  0.0mm 0 W/m2
18:53 32.7 °F /  0.4 °C 31.1 °F /  -0.5 °C 28.9in /  977.6hPa Calm     94% 0in /  0.0mm 0 W/m2
18:58 32.4 °F /  0.2 °C 30.7 °F /  -0.7 °C 28.9in /  977.6hPa Calm     94% 0in /  0.0mm 0 W/m2
19:03 32.4 °F /  0.2 °C 30.7 °F /  -0.7 °C 28.9in /  977.6hPa Calm   1mph /  1.6km/h 94% 0in /  0.0mm 0 W/m2
19:08 32.2 °F /  0.1 °C 30.6 °F /  -0.8 °C 28.9in /  977.3hPa Calm     94% 0in /  0.0mm 0 W/m2
19:13 32 °F /  0 °C 30.6 °F /  -0.8 °C 28.9in /  977.6hPa Calm     94% 0in /  0.0mm 0 W/m2
19:18 32 °F /  0 °C 30.7 °F /  -0.7 °C 28.9in /  977.6hPa Calm     95% 0in /  0.0mm 0 W/m2
19:23 31.8 °F /  -0.1 °C 30.6 °F /  -0.8 °C 28.9in /  977.6hPa Calm     95% 0in /  0.0mm 0 W/m2
19:28 31.6 °F /  -0.2 °C 30.4 °F /  -0.9 °C 28.9in /  977.6hPa Calm     95% 0in /  0.0mm 0 W/m2
19:33 31.6 °F /  -0.2 °C 30.4 °F /  -0.9 °C 28.9in /  977.3hPa Calm     95% 0in /  0.0mm 0 W/m2
19:38 31.6 °F /  -0.2 °C 30.4 °F /  -0.9 °C 28.9in /  977.6hPa Calm     95% 0in /  0.0mm 0 W/m2
19:43 31.6 °F /  -0.2 °C 30.4 °F /  -0.9 °C 28.9in /  977.3hPa Calm   2mph /  3.2km/h 95% 0in /  0.0mm 0 W/m2
19:48 31.6 °F /  -0.2 °C 30.4 °F /  -0.9 °C 28.9in /  977.3hPa Calm     95% 0in /  0.0mm 0 W/m2
19:53 31.8 °F /  -0.1 °C 30.7 °F /  -0.7 °C 28.9in /  977.3hPa Calm   1mph /  1.6km/h 96% 0in /  0.0mm 0 W/m2
19:58 32.2 °F /  0.1 °C 31.1 °F /  -0.5 °C 28.9in /  977.3hPa Calm     96% 0in /  0.0mm 0 W/m2
20:03 32.4 °F /  0.2 °C 31.3 °F /  -0.4 °C 28.9in /  977.3hPa West 0.9mph /  1.4km/h 1mph /  1.6km/h 96% 0in /  0.0mm 0 W/m2
20:08 32.9 °F /  0.5 °C 31.8 °F /  -0.1 °C 28.9in /  977.3hPa ENE 2mph /  3.2km/h 2mph /  3.2km/h 96% 0in /  0.0mm 0 W/m2
20:13 33.4 °F /  0.8 °C 32.4 °F /  0.2 °C 28.9in /  977.3hPa ENE 2mph /  3.2km/h 2mph /  3.2km/h 96% 0in /  0.0mm 0 W/m2
20:18 33.8 °F /  1 °C 32.7 °F /  0.4 °C 28.9in /  977.6hPa NE 2.9mph /  4.7km/h 4mph /  6.4km/h 96% 0in /  0.0mm 0 W/m2
20:23 34 °F /  1.1 °C 32.9 °F /  0.5 °C 28.9in /  977.3hPa NNE 4mph /  6.4km/h 4mph /  6.4km/h 96% 0in /  0.0mm 0 W/m2
20:28 34.2 °F /  1.2 °C 33.1 °F /  0.6 °C 28.9in /  977.3hPa ENE 6mph /  9.7km/h 6mph /  9.7km/h 96% 0in /  0.0mm 0 W/m2
20:33 34.3 °F /  1.3 °C 33.3 °F /  0.7 °C 28.9in /  977.3hPa East 2mph /  3.2km/h 6mph /  9.7km/h 96% 0in /  0.0mm 0 W/m2
20:38 34.5 °F /  1.4 °C 33.4 °F /  0.8 °C 28.9in /  977.3hPa East 2mph /  3.2km/h 4mph /  6.4km/h 96% 0in /  0.0mm 0 W/m2
20:43 34.5 °F /  1.4 °C 33.3 °F /  0.7 °C 28.9in /  977.0hPa Calm   2mph /  3.2km/h 95% 0in /  0.0mm 0 W/m2
20:48 34.5 °F /  1.4 °C 33.3 °F /  0.7 °C 28.9in /  977.0hPa ENE 0.9mph /  1.4km/h 2mph /  3.2km/h 95% 0in /  0.0mm 0 W/m2
20:53 34.3 °F /  1.3 °C 33.1 °F /  0.6 °C 28.9in /  977.0hPa ENE 2mph /  3.2km/h 2mph /  3.2km/h 95% 0in /  0.0mm 0 W/m2
20:58 34.2 °F /  1.2 °C 32.9 °F /  0.5 °C 28.9in /  977.0hPa East 0.9mph /  1.4km/h 2mph /  3.2km/h 95% 0in /  0.0mm 0 W/m2
21:03 34 °F /  1.1 °C 32.7 °F /  0.4 °C 28.9in /  977.0hPa East 0.9mph /  1.4km/h 2mph /  3.2km/h 95% 0in /  0.0mm 0 W/m2
21:08 33.6 °F /  0.9 °C 32.4 °F /  0.2 °C 28.9in /  977.0hPa Calm   2mph /  3.2km/h 95% 0in /  0.0mm 0 W/m2
21:14 33.6 °F /  0.9 °C 32.4 °F /  0.2 °C 28.9in /  977.0hPa ESE 2mph /  3.2km/h 3mph /  4.8km/h 95% 0in /  0.0mm 0 W/m2
21:19 33.4 °F /  0.8 °C 32.2 °F /  0.1 °C 28.9in /  977.0hPa ESE 2mph /  3.2km/h 3mph /  4.8km/h 95% 0in /  0.0mm 0 W/m2
21:24 33.4 °F /  0.8 °C 32.2 °F /  0.1 °C 28.9in /  977.0hPa ENE 2mph /  3.2km/h 3mph /  4.8km/h 95% 0in /  0.0mm 0 W/m2
21:29 33.4 °F /  0.8 °C 32.2 °F /  0.1 °C 28.9in /  977.0hPa Calm   2mph /  3.2km/h 95% 0in /  0.0mm 0 W/m2
21:34 33.4 °F /  0.8 °C 32.2 °F /  0.1 °C 28.9in /  977.0hPa Calm     95% 0in /  0.0mm 0 W/m2
21:39 33.4 °F /  0.8 °C 32.2 °F /  0.1 °C 28.9in /  977.0hPa Calm     95% 0in /  0.0mm 0 W/m2
21:44 33.4 °F /  0.8 °C 32.2 °F /  0.1 °C 28.9in /  977.0hPa ESE 0.9mph /  1.4km/h 2mph /  3.2km/h 95% 0in /  0.0mm 0 W/m2
21:49 33.4 °F /  0.8 °C 32.2 °F /  0.1 °C 28.9in /  977.0hPa ESE 0.9mph /  1.4km/h 2mph /  3.2km/h 95% 0in /  0.0mm 0 W/m2
21:54 33.4 °F /  0.8 °C 32.4 °F /  0.2 °C 28.9in /  977.0hPa Calm     96% 0in /  0.0mm 0 W/m2
21:59 33.4 °F /  0.8 °C 32.4 °F /  0.2 °C 28.9in /  977.0hPa Calm     96% 0in /  0.0mm 0 W/m2
22:04 33.3 °F /  0.7 °C 32.2 °F /  0.1 °C 28.8in /  976.6hPa East 0.9mph /  1.4km/h 2mph /  3.2km/h 96% 0in /  0.0mm 0 W/m2
22:09 33.3 °F /  0.7 °C 32.2 °F /  0.1 °C 28.8in /  976.6hPa Calm     96% 0in /  0.0mm 0 W/m2
22:14 33.4 °F /  0.8 °C 32.4 °F /  0.2 °C 28.9in /  977.0hPa ENE 0.9mph /  1.4km/h 3mph /  4.8km/h 96% 0in /  0.0mm 0 W/m2
22:19 33.4 °F /  0.8 °C 32.4 °F /  0.2 °C 28.8in /  976.6hPa ENE 0.9mph /  1.4km/h 3mph /  4.8km/h 96% 0in /  0.0mm 0 W/m2
22:24 33.8 °F /  1 °C 32.7 °F /  0.4 °C 28.8in /  976.6hPa Calm   2mph /  3.2km/h 96% 0in /  0.0mm 0 W/m2
22:29 34 °F /  1.1 °C 32.9 °F /  0.5 °C 28.8in /  976.6hPa NE 2mph /  3.2km/h 3mph /  4.8km/h 96% 0.02in /  0.5mm 0 W/m2
22:34 34.2 °F /  1.2 °C 33.1 °F /  0.6 °C 28.8in /  976.6hPa East 0.9mph /  1.4km/h 2mph /  3.2km/h 96% 0.03in /  0.8mm 0 W/m2
22:39 34.2 °F /  1.2 °C 33.1 °F /  0.6 °C 28.8in /  976.6hPa East 0.9mph /  1.4km/h 4mph /  6.4km/h 96% 0.04in /  1.0mm 0 W/m2
22:44 34.3 °F /  1.3 °C 33.3 °F /  0.7 °C 28.8in /  976.6hPa ENE 2.9mph /  4.7km/h 3mph /  4.8km/h 96% 0.04in /  1.0mm 0 W/m2
22:49 34.5 °F /  1.4 °C 33.4 °F /  0.8 °C 28.8in /  976.6hPa NNE 2.9mph /  4.7km/h 3mph /  4.8km/h 96% 0.05in /  1.3mm 0 W/m2
22:54 34.7 °F /  1.5 °C 33.6 °F /  0.9 °C 28.8in /  976.6hPa Calm   1mph /  1.6km/h 96% 0.05in /  1.3mm 0 W/m2
22:59 34.7 °F /  1.5 °C 33.6 °F /  0.9 °C 28.8in /  976.6hPa Calm   1mph /  1.6km/h 96% 0.05in /  1.3mm 0 W/m2
23:04 34.5 °F /  1.4 °C 33.4 °F /  0.8 °C 28.8in /  976.6hPa Calm     96% 0.06in /  1.5mm 0 W/m2
23:09 34.3 °F /  1.3 °C 33.3 °F /  0.7 °C 28.8in /  976.6hPa Calm     96% 0.06in /  1.5mm 0 W/m2
23:14 34.3 °F /  1.3 °C 33.3 °F /  0.7 °C 28.8in /  976.6hPa East 0.9mph /  1.4km/h 1mph /  1.6km/h 96% 0.06in /  1.5mm 0 W/m2
23:19 34.3 °F /  1.3 °C 33.3 °F /  0.7 °C 28.8in /  976.6hPa Calm   1mph /  1.6km/h 96% 0.06in /  1.5mm 0 W/m2
23:24 34.3 °F /  1.3 °C 33.3 °F /  0.7 °C 28.8in /  976.6hPa Calm     96% 0.06in /  1.5mm 0 W/m2
23:29 34.3 °F /  1.3 °C 33.3 °F /  0.7 °C 28.8in /  976.6hPa Calm     96% 0.04in /  1.0mm 0 W/m2
23:34 34.3 °F /  1.3 °C 33.3 °F /  0.7 °C 28.8in /  976.6hPa Calm     96% 0.04in /  1.0mm 0 W/m2
23:39 34.3 °F /  1.3 °C 33.3 °F /  0.7 °C 28.8in /  976.6hPa Calm     96% 0.03in /  0.8mm 0 W/m2
23:44 34.3 °F /  1.3 °C 33.3 °F /  0.7 °C 28.8in /  976.6hPa Calm   1mph /  1.6km/h 96% 0.03in /  0.8mm 0 W/m2
23:49 34.3 °F /  1.3 °C 33.3 °F /  0.7 °C 28.8in /  976.6hPa Calm     96% 0.02in /  0.5mm 0 W/m2
23:54 34.3 °F /  1.3 °C 33.3 °F /  0.7 °C 28.9in /  977.0hPa Calm   1mph /  1.6km/h 96% 0.02in /  0.5mm 0 W/m2
23:59 34.5 °F /  1.4 °C 33.4 °F /  0.8 °C 28.9in /  977.0hPa Calm     96% 0.02in /  0.5mm 0 W/m2
Juneau County Weather
Compliments of Weather Underground - 4 mb